Time;durP1;ratioP1;P1;durP2;ratioP2;P2;SDS_P1;SDS_P2;PMS_P1;PMS_P2;Temp;Humidity;BMP_temperature;BMP_pressure;BME280_temperature;BME280_humidity;BME280_pressure;Samples;Min_cycle;Max_cycle;Signal;HPM_P1;HPM_P2
2021/01/05 00:01:43;;;;;;;39.00;17.65;;;;;;;-0.78;100.00;99488.94;1761587;81;21315;-58
2021/01/05 00:04:11;;;;;;;36.85;16.20;;;;;;;-0.70;100.00;99490.30;1747545;81;21162;-59
2021/01/05 00:06:39;;;;;;;36.93;16.05;;;;;;;-0.66;100.00;99497.73;1745347;82;21163;-59
2021/01/05 00:09:06;;;;;;;37.30;16.67;;;;;;;-0.63;100.00;99510.98;1745070;82;21296;-62
2021/01/05 00:11:34;;;;;;;35.78;15.35;;;;;;;-0.62;100.00;99497.52;1745085;82;21305;-61
2021/01/05 00:14:02;;;;;;;37.58;17.10;;;;;;;-0.66;100.00;99501.14;1745180;82;21182;-60
2021/01/05 00:16:31;;;;;;;35.65;16.77;;;;;;;-0.62;100.00;99505.13;1745093;82;21305;-56
2021/01/05 00:18:58;;;;;;;40.92;18.00;;;;;;;-0.61;100.00;99497.63;1745082;82;21178;-60
2021/01/05 00:21:26;;;;;;;32.15;14.05;;;;;;;-0.59;100.00;99517.98;1745080;82;21170;-59
2021/01/05 00:23:54;;;;;;;38.48;17.05;;;;;;;-0.70;100.00;99508.05;1745380;82;21134;-57
2021/01/05 00:26:21;;;;;;;35.45;15.75;;;;;;;-0.75;100.00;99506.88;1745270;82;21174;-56
2021/01/05 00:28:49;;;;;;;35.45;16.62;;;;;;;-0.77;100.00;99503.36;1745105;82;21297;-58
2021/01/05 00:31:17;;;;;;;39.58;19.77;;;;;;;-0.82;100.00;99512.31;1745287;82;21173;-57
2021/01/05 00:33:45;;;;;;;41.73;19.37;;;;;;;-0.82;100.00;99500.92;1745184;82;21163;-59
2021/01/05 00:36:12;;;;;;;34.90;17.07;;;;;;;-0.79;100.00;99492.27;1745288;82;21150;-59
2021/01/05 00:38:39;;;;;;;35.40;16.93;;;;;;;-0.78;100.00;99495.28;1745101;82;21155;-59
2021/01/05 00:41:07;;;;;;;35.35;16.97;;;;;;;-0.80;100.00;99505.70;1745168;82;21297;-60
2021/01/05 00:43:34;;;;;;;35.50;15.72;;;;;;;-0.80;100.00;99496.83;1745418;82;21150;-62
2021/01/05 00:46:04;;;;;;;45.12;19.42;;;;;;;-0.87;100.00;99495.94;1745329;82;21300;-59
2021/01/05 00:48:32;;;;;;;34.67;17.23;;;;;;;-0.91;100.00;99496.15;1745066;82;21131;-61
2021/01/05 00:51:00;;;;;;;45.63;20.05;;;;;;;-0.95;100.00;99508.52;1745055;82;21309;-58
2021/01/05 00:53:28;;;;;;;41.15;18.35;;;;;;;-0.96;100.00;99515.64;1745146;82;21191;-61
2021/01/05 00:55:56;;;;;;;44.90;19.52;;;;;;;-1.01;100.00;99513.19;1745124;82;21155;-59
2021/01/05 00:58:24;;;;;;;43.65;19.57;;;;;;;-1.02;100.00;99516.48;1745270;82;21289;-59
2021/01/05 01:00:54;;;;;;;43.33;17.25;;;;;;;-1.01;100.00;99506.86;1745179;82;21179;-62
2021/01/05 01:03:23;;;;;;;46.42;21.07;;;;;;;-1.02;100.00;99507.62;1744386;81;21726;-58
2021/01/05 01:05:51;;;;;;;41.25;18.27;;;;;;;-1.03;100.00;99514.74;1742939;82;21352;-61
2021/01/05 01:08:21;;;;;;;48.25;21.73;;;;;;;-1.02;100.00;99496.22;1742956;82;21163;-60
2021/01/05 01:10:50;;;;;;;47.90;19.98;;;;;;;-0.99;100.00;99491.34;1743396;82;21289;-58
2021/01/05 01:13:19;;;;;;;50.98;21.97;;;;;;;-1.04;100.00;99499.94;1742960;82;21126;-62
2021/01/05 01:15:47;;;;;;;42.20;20.37;;;;;;;-1.07;100.00;99493.77;1742985;82;21135;-59
2021/01/05 01:18:15;;;;;;;50.80;19.05;;;;;;;-1.08;100.00;99492.03;1743037;82;21159;-60
2021/01/05 01:20:43;;;;;;;48.30;19.82;;;;;;;-1.10;100.00;99492.79;1743034;82;21166;-57
2021/01/05 01:23:13;;;;;;;57.17;26.25;;;;;;;-1.11;100.00;99492.31;1742907;82;21712;-56
2021/01/05 01:25:42;;;;;;;55.83;24.37;;;;;;;-1.07;100.00;99491.24;1743106;82;21135;-57
2021/01/05 01:28:11;;;;;;;59.75;25.82;;;;;;;-1.03;100.00;99491.55;1742910;82;21317;-57
2021/01/05 01:30:39;;;;;;;49.15;21.40;;;;;;;-1.05;100.00;99484.23;1742872;82;21147;-57
2021/01/05 01:33:10;;;;;;;46.70;20.90;;;;;;;-1.11;100.00;99494.84;1742983;82;21174;-60
2021/01/05 01:35:38;;;;;;;54.80;22.27;;;;;;;-1.18;100.00;99483.82;1742961;82;21273;-60
2021/01/05 01:38:06;;;;;;;46.58;21.85;;;;;;;-1.20;100.00;99484.50;1743214;82;21340;-56
2021/01/05 01:40:41;;;;;;;49.08;21.62;;;;;;;-1.20;100.00;99484.11;1742490;82;21367;-60
2021/01/05 01:43:19;;;;;;;53.52;22.85;;;;;;;-1.19;100.00;99486.27;1742668;82;21605;-59
2021/01/05 01:45:47;;;;;;;52.85;20.95;;;;;;;-1.18;100.00;99483.82;1743057;82;21320;-59
2021/01/05 01:48:17;;;;;;;47.33;22.15;;;;;;;-1.16;100.00;99471.27;1742377;82;21280;-56
2021/01/05 01:50:46;;;;;;;48.45;20.10;;;;;;;-1.15;100.00;99482.75;1743105;82;21557;-59
2021/01/05 01:53:26;;;;;;;40.12;19.17;;;;;;;-1.13;100.00;99486.66;1742929;82;21127;-61
2021/01/05 01:56:16;;;;;;;38.23;19.12;;;;;;;-1.14;100.00;99500.98;1742972;82;21688;-59
2021/01/05 01:58:59;;;;;;;50.25;23.62;;;;;;;-1.15;100.00;99481.48;1741105;82;21153;-60
2021/01/05 02:01:54;;;;;;;47.83;20.92;;;;;;;-1.11;100.00;99480.05;1743106;82;21277;-60
2021/01/05 02:04:49;;;;;;;36.85;18.75;;;;;;;-1.13;100.00;99471.07;1664053;86;21196;-60
2021/01/05 02:07:36;;;;;;;48.92;21.73;;;;;;;-1.15;100.00;99470.09;1689312;83;21177;-58
2021/01/05 02:10:33;;;;;;;42.98;20.92;;;;;;;-1.15;100.00;99466.69;1834811;77;22280;-58
2021/01/05 02:13:37;;;;;;;;;;;;;;;-1.22;100.00;99478.09;1796222;79;21150;-60
2021/01/05 02:16:30;;;;;;;43.35;20.88;;;;;;;-1.17;100.00;99466.97;1793793;80;20395;-60
2021/01/05 02:19:11;;;;;;;51.90;23.65;;;;;;;-1.18;100.00;99479.16;1769273;79;21687;-60
2021/01/05 02:21:45;;;;;;;48.63;22.48;;;;;;;-1.14;100.00;99456.66;1793583;80;21265;-60
2021/01/05 02:24:21;;;;;;;52.98;25.05;;;;;;;-1.11;100.00;99461.92;1793062;78;21252;-55
2021/01/05 02:27:10;;;;;;;54.38;23.62;;;;;;;-1.11;100.00;99458.13;1785687;80;21107;-61
2021/01/05 02:29:53;;;;;;;47.50;20.80;;;;;;;-1.05;100.00;99447.91;1793456;78;21261;-60
2021/01/05 02:33:19;;;;;;;49.38;22.75;;;;;;;-1.03;100.00;99453.55;1793453;80;21675;-60
2021/01/05 02:36:27;;;;;;;51.25;24.02;;;;;;;-1.07;100.00;99451.98;1793835;79;21162;-59
2021/01/05 02:39:52;;;;;;;53.95;24.65;;;;;;;-1.10;100.00;99447.20;1767264;79;21391;-58
2021/01/05 02:42:59;;;;;;;54.18;24.60;;;;;;;-1.02;100.00;99441.76;1793681;79;21150;-58
2021/01/05 02:46:12;;;;;;;46.10;21.25;;;;;;;-1.01;100.00;99441.00;1793852;78;21529;-57
2021/01/05 02:49:42;;;;;;;50.28;23.02;;;;;;;-1.07;100.00;99438.92;1793424;79;21261;-60
2021/01/05 02:53:04;;;;;;;49.73;22.98;;;;;;;-1.12;100.00;99427.26;1793420;79;21173;-55
2021/01/05 02:56:25;;;;;;;56.00;23.00;;;;;;;-1.11;100.00;99424.33;1793591;80;21170;-60
2021/01/05 02:59:55;;;;;;;51.95;23.77;;;;;;;-1.20;100.00;99419.53;1793555;80;21146;-59
2021/01/05 03:03:03;;;;;;;52.33;24.70;;;;;;;-1.21;100.00;99419.06;1793569;78;21123;-59
2021/01/05 03:06:11;;;;;;;57.65;26.30;;;;;;;-1.18;100.00;99412.92;1793588;79;21593;-62
2021/01/05 03:09:23;;;;;;;51.00;22.27;;;;;;;-1.14;100.00;99394.62;1793556;80;21569;-57
2021/01/05 03:13:05;;;;;;;51.85;22.20;;;;;;;-1.03;100.00;99398.23;1793695;80;21142;-59
2021/01/05 03:16:08;;;;;;;54.75;26.10;;;;;;;-1.05;100.00;99401.91;1794085;78;21139;-58
2021/01/05 03:19:09;;;;;;;47.90;22.32;;;;;;;-1.04;100.00;99392.66;1793969;79;21568;-57
2021/01/05 03:21:59;;;;;;;57.35;25.27;;;;;;;-1.01;100.00;99395.41;1793167;79;21134;-61
2021/01/05 03:24:46;;;;;;;54.77;25.02;;;;;;;-1.01;100.00;99400.47;1778607;80;21123;-60
2021/01/05 03:27:28;;;;;;;48.48;23.55;;;;;;;-1.00;100.00;99398.41;1762109;79;21153;-56
2021/01/05 03:30:42;;;;;;;47.75;23.12;;;;;;;-0.98;100.00;99404.46;1793215;79;21683;-62
2021/01/05 03:33:28;;;;;;;57.40;24.90;;;;;;;-1.00;100.00;99408.15;1793227;79;21158;-58
2021/01/05 03:36:14;;;;;;;57.67;26.97;;;;;;;-1.04;100.00;99398.63;1793230;80;21150;-58
2021/01/05 03:39:01;;;;;;;56.55;25.15;;;;;;;-1.05;100.00;99391.78;1793076;80;21127;-55
2021/01/05 03:41:47;;;;;;;55.35;23.85;;;;;;;-0.99;100.00;99399.79;1793180;80;21151;-62
2021/01/05 03:44:34;;;;;;;50.23;23.60;;;;;;;-0.95;100.00;99388.18;1793339;79;21166;-59
2021/01/05 03:47:20;;;;;;;49.00;22.25;;;;;;;-0.94;100.00;99400.05;1793168;80;21429;-60
2021/01/05 03:50:08;;;;;;;40.05;19.42;;;;;;;-0.90;100.00;99388.08;1793176;80;21544;-60
2021/01/05 03:52:55;;;;;;;41.48;19.20;;;;;;;-0.94;100.00;99401.32;1793103;78;21142;-58
2021/01/05 03:55:41;;;;;;;40.05;18.98;;;;;;;-0.93;100.00;99390.03;1793360;80;21131;-58
2021/01/05 03:58:27;;;;;;;43.60;18.25;;;;;;;-0.91;100.00;99392.28;1793382;79;21111;-56
2021/01/05 04:01:13;;;;;;;38.00;18.42;;;;;;;-0.89;100.00;99387.28;1793255;79;21565;-57
2021/01/05 04:03:41;;;;;;;38.05;17.62;;;;;;;-0.93;100.00;99390.42;1793253;80;21158;-58
2021/01/05 04:06:10;;;;;;;34.58;15.48;;;;;;;-0.95;100.00;99395.78;1793374;80;21292;-58
2021/01/05 04:08:38;;;;;;;53.38;22.77;;;;;;;-1.02;100.00;99374.64;1792019;79;21162;-59
2021/01/05 04:11:06;;;;;;;41.77;20.80;;;;;;;-1.01;100.00;99387.81;1779365;79;21292;-59
2021/01/05 04:13:33;;;;;;;39.30;19.55;;;;;;;-0.95;100.00;99395.78;1779339;81;21253;-57
2021/01/05 04:16:01;;;;;;;41.28;19.48;;;;;;;-0.96;100.00;99399.11;1779333;81;21277;-58
2021/01/05 04:18:28;;;;;;;34.92;17.82;;;;;;;-0.98;100.00;99385.46;1779392;81;21257;-58
2021/01/05 04:20:56;;;;;;;34.35;17.40;;;;;;;-0.99;100.00;99381.16;1779560;79;21166;-57
2021/01/05 04:23:24;;;;;;;36.95;17.02;;;;;;;-0.99;100.00;99379.89;1779328;81;21261;-61
2021/01/05 04:25:51;;;;;;;35.35;17.07;;;;;;;-1.00;100.00;99395.88;1779347;80;21344;-58
2021/01/05 04:28:19;;;;;;;32.58;16.07;;;;;;;-1.00;100.00;99380.69;1779243;79;21151;-58
2021/01/05 04:30:46;;;;;;;42.25;19.90;;;;;;;-0.99;100.00;99383.33;1779225;79;21155;-61
2021/01/05 04:33:14;;;;;;;41.25;18.52;;;;;;;-1.01;100.00;99382.34;1779215;81;21119;-56
2021/01/05 04:35:41;;;;;;;37.28;16.57;;;;;;;-1.00;100.00;99379.02;1779232;80;21191;-61
2021/01/05 04:38:09;;;;;;;37.65;18.75;;;;;;;-1.01;100.00;99377.67;1779464;80;21561;-61
2021/01/05 04:40:44;;;;;;;43.05;18.77;;;;;;;-0.95;100.00;99376.78;1779335;79;21155;-59
2021/01/05 04:43:36;;;;;;;39.38;18.87;;;;;;;-0.90;100.00;99369.95;1779440;81;21166;-59
2021/01/05 04:46:18;;;;;;;38.17;18.73;;;;;;;-0.90;100.00;99371.61;1779314;81;21285;-60
2021/01/05 04:49:24;;;;;;;30.55;15.45;;;;;;;-0.88;100.00;99367.52;1779376;81;21716;-60
2021/01/05 04:52:03;;;;;;;30.68;16.73;;;;;;;-0.92;100.00;99380.77;1772895;81;21123;-59
2021/01/05 04:54:37;;;;;;;33.88;16.15;;;;;;;-0.93;100.00;99377.36;1778708;80;21139;-60
2021/01/05 04:57:22;;;;;;;36.20;16.90;;;;;;;-0.95;100.00;99383.11;1779196;80;21154;-57
2021/01/05 05:00:04;;;;;;;34.63;16.42;;;;;;;-0.96;100.00;99372.11;1779320;79;21257;-56
2021/01/05 05:02:40;;;;;;;39.48;19.23;;;;;;;-0.95;100.00;99365.38;1779218;79;21112;-59
2021/01/05 05:05:53;;;;;;;42.67;18.90;;;;;;;-0.85;100.00;99377.84;1778474;80;21127;-58
2021/01/05 05:09:01;;;;;;;42.67;19.65;;;;;;;-0.85;100.00;99371.91;1779202;79;21152;-62
2021/01/05 05:12:13;;;;;;;36.65;17.87;;;;;;;-0.83;100.00;99363.63;1779589;79;21171;-60
2021/01/05 05:15:14;;;;;;;34.23;16.83;;;;;;;-0.89;100.00;99373.35;1779541;81;21159;-61
2021/01/05 05:18:08;;;;;;;28.98;16.12;;;;;;;-0.99;100.00;99362.16;1757158;80;21601;-61
2021/01/05 05:21:06;;;;;;;34.33;15.93;;;;;;;-1.04;100.00;99382.52;1779272;79;21151;-62
2021/01/05 05:24:27;;;;;;;39.45;18.45;;;;;;;-1.01;100.00;99367.55;1779139;79;21159;-59
2021/01/05 05:27:19;;;;;;;34.50;15.53;;;;;;;-1.00;100.00;99366.75;1769109;81;21304;-59
2021/01/05 05:30:01;;;;;;;38.70;18.25;;;;;;;-0.97;100.00;99376.67;1768946;81;21301;-61
2021/01/05 05:32:38;;;;;;;40.45;19.45;;;;;;;-0.96;100.00;99368.31;1777727;79;21175;-58
2021/01/05 05:35:34;;;;;;;40.00;17.48;;;;;;;-0.91;100.00;99358.47;1778276;81;21293;-58
2021/01/05 05:38:13;;;;;;;38.17;18.05;;;;;;;-0.84;100.00;99356.81;1779262;79;21115;-59
2021/01/05 05:40:55;;;;;;;37.48;17.95;;;;;;;-0.83;100.00;99357.69;1778512;80;21134;-61
2021/01/05 05:43:50;;;;;;;41.73;18.77;;;;;;;-0.79;100.00;99373.17;1779275;80;21255;-58
2021/01/05 05:46:28;;;;;;;29.05;14.63;;;;;;;-0.76;100.00;99345.48;1767506;79;21249;-57
2021/01/05 05:49:04;;;;;;;36.65;17.25;;;;;;;-0.76;100.00;99355.63;1759053;80;21574;-58
2021/01/05 05:51:37;;;;;;;36.63;15.48;;;;;;;-0.75;100.00;99343.42;1779166;79;21171;-62
2021/01/05 05:54:15;;;;;;;35.95;17.80;;;;;;;-0.81;100.00;99343.06;1779138;81;21304;-58
2021/01/05 05:57:09;;;;;;;34.98;18.30;;;;;;;-0.87;100.00;99347.73;1779293;79;21159;-59
2021/01/05 05:59:45;;;;;;;31.80;18.45;;;;;;;-0.86;100.00;99351.17;1778162;80;21178;-61
2021/01/05 06:02:17;;;;;;;31.85;15.72;;;;;;;-0.88;100.00;99346.86;1779184;81;21147;-57
2021/01/05 06:04:45;;;;;;;29.50;15.35;;;;;;;-0.81;100.00;99331.66;1779342;79;21119;-57
2021/01/05 06:07:13;;;;;;;33.80;17.48;;;;;;;-0.76;100.00;99334.48;1779213;81;21143;-58
2021/01/05 06:09:41;;;;;;;38.90;19.25;;;;;;;-0.75;100.00;99340.89;1779035;80;21151;-59
2021/01/05 06:12:10;;;;;;;35.35;18.55;;;;;;;-0.76;100.00;99329.02;1779355;81;21163;-60
2021/01/05 06:14:37;;;;;;;33.30;18.62;;;;;;;-0.67;100.00;99334.62;1779102;81;21254;-61
2021/01/05 06:17:05;;;;;;;28.87;14.93;;;;;;;-0.69;100.00;99339.12;1779183;79;21136;-60
2021/01/05 06:19:32;;;;;;;30.02;16.20;;;;;;;-0.80;100.00;99365.07;1779146;79;21119;-56
2021/01/05 06:22:00;;;;;;;33.70;16.23;;;;;;;-0.85;100.00;99364.30;1779258;81;21147;-60
2021/01/05 06:24:27;;;;;;;32.60;13.95;;;;;;;-0.88;100.00;99361.19;1779250;79;21151;-56
2021/01/05 06:26:55;;;;;;;33.08;17.82;;;;;;;-0.91;100.00;99328.94;1778890;81;21151;-60
2021/01/05 06:29:23;;;;;;;39.03;20.88;;;;;;;-0.90;100.00;99325.62;1779098;79;21175;-59
2021/01/05 06:31:50;;;;;;;33.83;18.00;;;;;;;-0.83;100.00;99315.48;1767845;80;21147;-56
2021/01/05 06:34:18;;;;;;;36.42;18.07;;;;;;;-0.73;100.00;99316.92;1765143;81;21278;-57
2021/01/05 06:36:46;;;;;;;33.92;17.40;;;;;;;-0.75;100.00;99332.02;1765480;79;21269;-60
2021/01/05 06:39:14;;;;;;;30.75;16.30;;;;;;;-0.77;100.00;99346.65;1764254;80;21157;-59
2021/01/05 06:41:41;;;;;;;34.38;18.00;;;;;;;-0.84;100.00;99341.61;1762008;81;21166;-59
2021/01/05 06:44:09;;;;;;;36.50;18.95;;;;;;;-0.88;100.00;99332.06;1764293;80;21135;-59
2021/01/05 06:46:37;;;;;;;35.25;16.10;;;;;;;-0.91;100.00;99343.27;1761312;80;21142;-59
2021/01/05 06:49:04;;;;;;;36.68;18.70;;;;;;;-0.95;100.00;99347.25;1696627;84;21257;-60
2021/01/05 06:51:32;;;;;;;30.88;17.23;;;;;;;-0.95;100.00;99349.78;1762137;81;21139;-61
2021/01/05 06:54:00;;;;;;;37.75;16.15;;;;;;;-0.97;100.00;99356.41;1762964;80;21316;-56
2021/01/05 06:56:28;;;;;;;36.10;17.07;;;;;;;-0.96;100.00;99343.38;1693226;82;21220;-57
2021/01/05 06:58:57;;;;;;;30.08;16.00;;;;;;;-0.97;100.00;99350.08;1764399;79;21123;-57
2021/01/05 07:01:25;;;;;;;37.95;18.87;;;;;;;-0.99;100.00;99346.95;1763348;81;21143;-58
2021/01/05 07:03:53;;;;;;;37.33;19.00;;;;;;;-0.97;100.00;99339.95;1761948;79;21178;-60
2021/01/05 07:06:22;;;;;;;41.33;20.57;;;;;;;-0.92;100.00;99346.56;1764350;81;21162;-56
2021/01/05 07:08:49;;;;;;;33.02;18.20;;;;;;;-0.88;100.00;99363.33;1697345;82;21145;-57
2021/01/05 07:11:17;;;;;;;41.65;21.45;;;;;;;-0.79;100.00;99351.64;1764921;81;21273;-63
2021/01/05 07:13:44;;;;;;;33.08;17.80;;;;;;;-0.78;100.00;99354.65;1763333;81;21368;-57
2021/01/05 07:16:12;;;;;;;39.05;17.90;;;;;;;-0.80;100.00;99370.14;1762189;81;21183;-57
2021/01/05 07:18:39;;;;;;;35.68;18.35;;;;;;;-0.85;100.00;99353.77;1762050;81;21115;-60
2021/01/05 07:21:07;;;;;;;39.10;20.25;;;;;;;-0.83;100.00;99367.81;1759065;80;21098;-58
2021/01/05 07:23:35;;;;;;;37.55;19.05;;;;;;;-0.85;100.00;99354.17;1754089;81;21152;-65
2021/01/05 07:26:04;;;;;;;46.70;21.52;;;;;;;-0.87;100.00;99359.13;1763010;81;21150;-67
2021/01/05 07:28:32;;;;;;;35.23;17.60;;;;;;;-0.87;100.00;99345.20;1762272;81;21182;-69
2021/01/05 07:30:59;;;;;;;43.58;22.05;;;;;;;-0.88;100.00;99348.52;1762269;79;21099;-66
2021/01/05 07:33:27;;;;;;;41.15;20.95;;;;;;;-0.85;100.00;99344.03;1763444;81;21289;-71
2021/01/05 07:35:55;;;;;;;44.55;22.85;;;;;;;-0.84;100.00;99339.08;1696717;84;21336;-69
2021/01/05 07:38:23;;;;;;;52.80;25.30;;;;;;;-0.77;100.00;99336.11;1763182;79;21143;-71
2021/01/05 07:40:51;;;;;;;44.20;23.25;;;;;;;-0.71;100.00;99349.18;1769380;79;21159;-71
2021/01/05 07:43:19;;;;;;;48.98;23.65;;;;;;;-0.65;100.00;99336.00;1764795;79;21123;-69
2021/01/05 07:45:59;;;;;;;56.98;27.25;;;;;;;-0.59;100.00;99344.36;1716012;82;21142;-64
2021/01/05 07:48:26;;;;;;;46.30;23.10;;;;;;;-0.53;100.00;99343.09;1715193;82;21593;-70
2021/01/05 07:50:54;;;;;;;46.68;24.67;;;;;;;-0.54;100.00;99344.25;1714764;82;21174;-71
2021/01/05 07:53:22;;;;;;;43.30;20.85;;;;;;;-0.62;100.00;99355.59;1690531;84;21165;-71
2021/01/05 07:55:50;;;;;;;50.15;21.87;;;;;;;-0.69;100.00;99374.23;1682841;84;21186;-69
2021/01/05 07:58:18;;;;;;;38.90;20.12;;;;;;;-0.72;100.00;99365.14;1682886;84;21601;-69
2021/01/05 08:00:46;;;;;;;45.75;21.90;;;;;;;-0.79;100.00;99367.20;1682787;84;21178;-67
2021/01/05 08:03:13;;;;;;;46.73;23.90;;;;;;;-0.79;100.00;99347.84;1686785;84;21178;-65
2021/01/05 08:05:42;;;;;;;45.85;22.65;;;;;;;-0.72;100.00;99352.48;1706610;83;21199;-66
2021/01/05 08:08:09;;;;;;;51.73;26.45;;;;;;;-0.74;100.00;99350.27;1714222;82;21320;-66
2021/01/05 08:10:39;;;;;;;50.65;25.45;;;;;;;-0.73;100.00;99348.20;1714486;82;21143;-75
2021/01/05 08:13:12;;;;;;;57.25;27.50;;;;;;;-0.68;100.00;99353.16;1714388;83;21131;-74
2021/01/05 08:15:40;;;;;;;51.65;22.93;;;;;;;-0.63;100.00;99343.71;1706459;82;21698;-75
2021/01/05 08:18:08;;;;;;;52.27;22.65;;;;;;;-0.61;100.00;99339.59;1654459;85;21289;-74
2021/01/05 08:20:39;;;;;;;41.75;20.60;;;;;;;-0.64;100.00;99333.06;1701569;82;21542;-74
2021/01/05 08:23:09;;;;;;;44.42;23.07;;;;;;;-0.65;100.00;99349.94;1667972;85;21160;-74
2021/01/05 08:25:36;;;;;;;39.67;19.73;;;;;;;-0.67;100.00;99342.62;1698129;84;21157;-76
2021/01/05 08:28:04;;;;;;;44.33;22.05;;;;;;;-0.68;100.00;99336.69;1700978;84;21162;-76
2021/01/05 08:30:37;;;;;;;47.40;22.40;;;;;;;-0.67;100.00;99332.09;1654318;85;21204;-75
2021/01/05 08:33:07;;;;;;;;;;;;;;;-0.62;100.00;99322.64;1703954;82;21712;-75
2021/01/05 08:35:36;;;;;;;41.42;22.15;;;;;;;-0.61;100.00;99327.81;1700794;84;20472;-75
2021/01/05 08:38:05;;;;;;;44.27;23.27;;;;;;;-0.58;100.00;99329.66;1700967;84;21765;-73
2021/01/05 08:40:35;;;;;;;48.68;23.47;;;;;;;-0.58;100.00;99322.05;1701042;84;21155;-71
2021/01/05 08:43:06;;;;;;;46.28;23.10;;;;;;;-0.58;100.00;99311.91;1701064;82;21175;-70
2021/01/05 08:45:34;;;;;;;49.88;22.50;;;;;;;-0.56;100.00;99331.50;1710816;82;21190;-71
2021/01/05 08:48:05;;;;;;;47.73;24.55;;;;;;;-0.52;100.00;99300.86;1714549;82;21601;-76
2021/01/05 08:50:34;;;;;;;;;;;;;;;-0.52;100.00;99303.00;1716332;82;21786;-72
2021/01/05 08:53:10;;;;;;;56.30;25.85;;;;;;;-0.45;100.00;99288.64;1706195;84;20230;-68
2021/01/05 08:55:40;;;;;;;53.05;25.20;;;;;;;-0.38;100.00;99275.95;1714475;82;21553;-68
2021/01/05 08:58:09;;;;;;;55.48;28.95;;;;;;;-0.34;100.00;99269.39;1682251;84;21170;-69
2021/01/05 09:00:37;;;;;;;58.60;27.10;;;;;;;-0.27;100.00;99287.59;1689791;84;21696;-67
2021/01/05 09:03:06;;;;;;;54.13;26.12;;;;;;;-0.23;100.00;99288.27;1680053;84;21329;-70
2021/01/05 09:05:36;;;;;;;50.05;26.93;;;;;;;-0.26;100.00;99298.20;1688928;82;21139;-69
2021/01/05 09:08:04;;;;;;;47.62;23.70;;;;;;;-0.27;100.00;99303.20;1709425;82;21287;-58
2021/01/05 09:10:33;;;;;;;42.67;21.65;;;;;;;-0.33;100.00;99312.97;1696269;83;21756;-60
2021/01/05 09:13:01;;;;;;;46.88;25.75;;;;;;;-0.38;100.00;99305.11;1698714;84;21182;-58
2021/01/05 09:15:29;;;;;;;49.83;22.87;;;;;;;-0.37;100.00;99313.59;1696358;83;21182;-61
2021/01/05 09:17:57;;;;;;;43.17;23.38;;;;;;;-0.36;100.00;99314.92;1689478;83;21577;-61
2021/01/05 09:20:25;;;;;;;44.85;25.17;;;;;;;-0.38;100.00;99316.52;1682431;84;21134;-71
2021/01/05 09:22:55;;;;;;;52.58;26.15;;;;;;;-0.33;100.00;99312.59;1682217;85;21181;-60
2021/01/05 09:25:23;;;;;;;45.12;23.20;;;;;;;-0.27;100.00;99307.87;1682371;84;21178;-64
2021/01/05 09:27:53;;;;;;;41.88;20.75;;;;;;;-0.27;100.00;99308.28;1682396;85;21126;-59
2021/01/05 09:30:22;;;;;;;45.55;20.97;;;;;;;-0.32;100.00;99302.05;1689382;84;21167;-59
2021/01/05 09:32:50;;;;;;;47.98;23.60;;;;;;;-0.41;100.00;99293.49;1698739;84;21284;-60
2021/01/05 09:35:18;;;;;;;48.85;23.92;;;;;;;-0.43;100.00;99309.03;1710334;82;21277;-59
2021/01/05 09:37:49;;;;;;;42.78;21.40;;;;;;;-0.40;100.00;99287.66;1710831;82;21155;-64
2021/01/05 09:40:19;;;;;;;49.18;24.57;;;;;;;-0.34;100.00;99277.00;1713085;84;21215;-61
2021/01/05 09:42:47;;;;;;;41.28;22.48;;;;;;;-0.33;100.00;99268.59;1714258;82;21124;-62
2021/01/05 09:45:15;;;;;;;45.43;24.47;;;;;;;-0.29;100.00;99271.80;1721036;81;21165;-59
2021/01/05 09:47:44;;;;;;;43.40;23.85;;;;;;;-0.25;100.00;99266.13;1730158;81;21189;-61
2021/01/05 09:50:13;;;;;;;47.80;24.95;;;;;;;-0.23;100.00;99254.03;1726699;82;21169;-72
2021/01/05 09:52:41;;;;;;;40.90;22.15;;;;;;;-0.23;100.00;99264.17;1720719;83;21161;-69
2021/01/05 09:55:10;;;;;;;37.45;20.40;;;;;;;-0.27;100.00;99258.42;1718849;83;21216;-67
2021/01/05 09:57:38;;;;;;;34.90;18.32;;;;;;;-0.32;100.00;99257.28;1719262;83;21597;-68
2021/01/05 10:00:09;;;;;;;34.53;18.62;;;;;;;-0.30;100.00;99252.31;1719097;83;21193;-69
2021/01/05 10:02:36;;;;;;;32.13;16.60;;;;;;;-0.30;100.00;99258.25;1719286;82;21165;-65
2021/01/05 10:05:07;;;;;;;38.35;19.37;;;;;;;-0.32;100.00;99247.14;1718555;82;21233;-67
2021/01/05 10:07:34;;;;;;;35.15;18.57;;;;;;;-0.25;100.00;99240.38;1718998;82;21221;-70
2021/01/05 10:10:05;;;;;;;38.98;18.98;;;;;;;-0.22;100.00;99243.08;1718956;83;21189;-68
2021/01/05 10:12:33;;;;;;;45.33;21.77;;;;;;;-0.19;100.00;99235.17;1720269;82;21308;-70
2021/01/05 10:15:02;;;;;;;39.80;21.42;;;;;;;-0.26;100.00;99231.40;1720218;83;21728;-66
2021/01/05 10:17:29;;;;;;;36.63;18.35;;;;;;;-0.26;100.00;99227.19;1720637;82;21149;-64
2021/01/05 10:19:57;;;;;;;37.75;19.52;;;;;;;-0.24;100.00;99250.98;1721553;82;21130;-72
2021/01/05 10:22:25;;;;;;;36.25;18.32;;;;;;;-0.29;100.00;99250.25;1720197;82;21150;-68
2021/01/05 10:24:52;;;;;;;36.17;19.20;;;;;;;-0.28;100.00;99239.30;1720150;82;21581;-66
2021/01/05 10:27:20;;;;;;;36.93;17.37;;;;;;;-0.28;100.00;99232.59;1720083;83;21166;-66
2021/01/05 10:29:48;;;;;;;41.73;21.23;;;;;;;-0.26;100.00;99244.95;1720210;83;21157;-68
2021/01/05 10:32:16;;;;;;;44.30;20.32;;;;;;;-0.25;100.00;99247.98;1720182;83;21615;-67
2021/01/05 10:34:44;;;;;;;36.75;18.95;;;;;;;-0.19;100.00;99217.02;1720446;83;21652;-65
2021/01/05 10:37:12;;;;;;;39.55;19.30;;;;;;;-0.18;100.00;99220.02;1720376;82;21690;-65
2021/01/05 10:39:39;;;;;;;40.25;22.90;;;;;;;-0.19;100.00;99211.95;1720400;82;21235;-68
2021/01/05 10:42:08;;;;;;;41.08;20.17;;;;;;;-0.16;100.00;99209.98;1720612;83;21175;-65
2021/01/05 10:44:37;;;;;;;41.00;20.40;;;;;;;-0.13;100.00;99206.34;1719100;82;21165;-67
2021/01/05 10:47:06;;;;;;;33.35;17.50;;;;;;;-0.13;100.00;99192.39;1692000;83;21588;-66
2021/01/05 10:49:34;;;;;;;40.52;20.10;;;;;;;-0.21;100.00;99231.27;1691787;85;21161;-67
2021/01/05 10:52:03;;;;;;;36.68;18.25;;;;;;;-0.22;100.00;99202.50;1691695;83;21276;-68
2021/01/05 10:54:31;;;;;;;39.10;20.35;;;;;;;-0.19;100.00;99207.28;1691942;84;21275;-67
2021/01/05 10:57:03;;;;;;;41.45;19.00;;;;;;;-0.19;100.00;99217.42;1691745;85;21280;-65
2021/01/05 10:59:33;;;;;;;45.30;24.60;;;;;;;-0.22;100.00;99212.64;1691756;83;21165;-66
2021/01/05 11:02:03;;;;;;;43.17;22.02;;;;;;;-0.18;100.00;99192.52;1691885;83;21170;-69
2021/01/05 11:04:31;;;;;;;46.08;23.52;;;;;;;-0.19;100.00;99190.80;1691862;83;21165;-67
2021/01/05 11:07:03;;;;;;;43.08;20.30;;;;;;;-0.14;100.00;99199.13;1691820;84;21158;-66
2021/01/05 11:09:31;;;;;;;50.17;25.20;;;;;;;-0.14;100.00;99198.27;1691996;83;21564;-66
2021/01/05 11:12:06;;;;;;;48.92;23.30;;;;;;;-0.20;100.00;99206.78;1691824;85;21153;-70
2021/01/05 11:14:34;;;;;;;43.73;20.55;;;;;;;-0.19;100.00;99188.25;1691386;83;21742;-71
2021/01/05 11:17:01;;;;;;;42.27;23.15;;;;;;;-0.15;100.00;99169.50;1691651;85;21173;-69
2021/01/05 11:19:29;;;;;;;46.48;23.42;;;;;;;-0.04;100.00;99166.29;1691918;85;21765;-67
2021/01/05 11:22:00;;;;;;;61.45;27.52;;;;;;;0.06;100.00;99169.81;1691656;83;21190;-66
2021/01/05 11:24:30;;;;;;;49.13;23.47;;;;;;;0.09;100.00;99171.25;1691981;85;21564;-69
2021/01/05 11:26:58;;;;;;;52.13;26.55;;;;;;;0.10;100.00;99167.05;1691686;83;21283;-65
2021/01/05 11:29:26;;;;;;;44.70;23.50;;;;;;;0.11;100.00;99162.06;1691656;83;21621;-67
2021/01/05 11:32:00;;;;;;;53.60;25.92;;;;;;;0.19;100.00;99173.50;1691678;84;21158;-67
2021/01/05 11:34:29;;;;;;;43.33;22.87;;;;;;;0.17;100.00;99167.86;1691918;85;21299;-67
2021/01/05 11:37:05;;;;;;;40.25;22.58;;;;;;;0.21;100.00;99165.98;1691927;85;21536;-66
2021/01/05 11:39:33;;;;;;;48.90;23.00;;;;;;;0.18;100.00;99164.16;1691808;83;21288;-66
2021/01/05 11:42:05;;;;;;;56.68;29.63;;;;;;;0.21;100.00;99166.86;1691938;83;21288;-65
2021/01/05 11:44:33;;;;;;;53.40;25.57;;;;;;;0.18;100.00;99174.30;1691819;85;21284;-66
2021/01/05 11:47:01;;;;;;;53.42;28.38;;;;;;;0.15;100.00;99168.17;1691654;82;21185;-69